Time;durP1;ratioP1;P1;durP2;ratioP2;P2;SDS_P1;SDS_P2;PMS_P1;PMS_P2;Temp;Humidity;BMP_temperature;BMP_pressure;BME280_temperature;BME280_humidity;BME280_pressure;Samples;Min_cycle;Max_cycle;Signal;HPM_P1;HPM_P2
2021/04/11 00:00:52;;;;;;;18.93;12.53;;;4.70;99.90;;;;;;5089993;28;20280;-80
2021/04/11 00:03:21;;;;;;;19.10;12.90;;;4.70;99.90;;;;;;5091328;28;20287;-80
2021/04/11 00:05:49;;;;;;;17.17;11.63;;;4.70;99.90;;;;;;5092306;28;20241;-82
2021/04/11 00:08:16;;;;;;;15.00;9.83;;;4.60;99.90;;;;;;5092329;28;20287;-82
2021/04/11 00:10:46;;;;;;;17.53;11.50;;;4.50;99.90;;;;;;5090757;28;20279;-83
2021/04/11 00:13:15;;;;;;;15.97;10.87;;;4.40;99.90;;;;;;5090196;28;20200;-79
2021/04/11 00:15:42;;;;;;;20.53;11.17;;;4.50;99.90;;;;;;5093155;28;20284;-81
2021/04/11 00:18:08;;;;;;;18.30;11.93;;;4.40;99.90;;;;;;5084874;28;20639;-79
2021/04/11 00:20:35;;;;;;;15.87;10.87;;;4.40;99.90;;;;;;5092975;28;20283;-80
2021/04/11 00:23:03;;;;;;;16.77;11.60;;;4.40;99.90;;;;;;5094378;28;20238;-83
2021/04/11 00:25:32;;;;;;;19.83;13.07;;;4.40;99.90;;;;;;5095067;28;20191;-80
2021/04/11 00:27:58;;;;;;;18.53;12.07;;;4.40;99.90;;;;;;5092470;28;20311;-81
2021/04/11 00:30:25;;;;;;;21.97;14.37;;;4.50;99.90;;;;;;5095638;28;20624;-83
2021/04/11 00:32:54;;;;;;;22.70;14.83;;;4.50;99.90;;;;;;5088441;28;20287;-85
2021/04/11 00:35:22;;;;;;;28.20;17.33;;;4.60;99.90;;;;;;5094582;28;20640;-90
2021/04/11 00:37:48;;;;;;;31.10;18.73;;;4.50;99.90;;;;;;5088822;28;20216;-81
2021/04/11 00:40:20;;;;;;;33.13;20.30;;;4.50;99.90;;;;;;5095316;28;20197;-79
2021/04/11 00:42:52;;;;;;;23.70;15.33;;;4.50;99.90;;;;;;5094796;28;20591;-81
2021/04/11 00:45:25;;;;;;;24.50;15.93;;;4.40;99.90;;;;;;5094226;28;20224;-79
2021/04/11 00:47:52;;;;;;;23.10;14.17;;;4.40;99.90;;;;;;5093425;28;20739;-81
2021/04/11 00:50:19;;;;;;;17.93;12.63;;;4.40;99.90;;;;;;5094028;28;20390;-78
2021/04/11 00:52:46;;;;;;;18.37;11.80;;;4.40;99.90;;;;;;5090478;28;20666;-80
2021/04/11 00:55:15;;;;;;;15.63;10.87;;;4.40;99.90;;;;;;5092926;28;20194;-82
2021/04/11 00:57:43;;;;;;;14.97;10.87;;;4.30;99.90;;;;;;5091909;28;20227;-80
2021/04/11 01:00:11;;;;;;;13.10;8.80;;;4.30;99.90;;;;;;5095101;28;20196;-80
2021/04/11 01:02:39;;;;;;;13.27;9.60;;;4.10;99.90;;;;;;5093049;28;20200;-83
2021/04/11 01:05:14;;;;;;;13.67;9.23;;;4.00;99.90;;;;;;5091780;28;20220;-82
2021/04/11 01:07:42;;;;;;;14.63;10.10;;;4.00;99.90;;;;;;5094746;28;20238;-84
2021/04/11 01:10:12;;;;;;;17.40;11.03;;;4.00;99.90;;;;;;5095752;28;20309;-81
2021/04/11 01:12:39;;;;;;;16.43;10.90;;;4.10;99.90;;;;;;5094759;28;20234;-81
2021/04/11 01:15:13;;;;;;;18.13;11.00;;;4.00;99.90;;;;;;5094662;28;20237;-81
2021/04/11 01:17:40;;;;;;;22.47;11.40;;;4.00;99.90;;;;;;5094586;28;20288;-82
2021/04/11 01:20:09;;;;;;;15.37;10.57;;;4.00;99.90;;;;;;5095149;28;20196;-81
2021/04/11 01:22:47;;;;;;;16.63;11.03;;;4.00;99.90;;;;;;5084515;28;20291;-81
2021/04/11 01:25:20;;;;;;;15.47;10.07;;;4.00;99.90;;;;;;5090847;28;20228;-81
2021/04/11 01:27:47;;;;;;;12.80;9.53;;;4.00;99.90;;;;;;5083195;28;20204;-81
2021/04/11 01:30:23;;;;;;;15.23;10.10;;;3.90;99.90;;;;;;5094974;28;20209;-81
2021/04/11 01:32:50;;;;;;;14.77;10.00;;;3.90;99.90;;;;;;5092776;28;20238;-85
2021/04/11 01:35:19;;;;;;;14.43;9.90;;;4.00;99.90;;;;;;5095030;28;20189;-84
2021/04/11 01:37:46;;;;;;;15.23;9.40;;;4.10;99.90;;;;;;5094726;28;20299;-83
2021/04/11 01:40:16;;;;;;;13.20;8.87;;;4.00;99.90;;;;;;5094762;28;20211;-86
2021/04/11 01:42:43;;;;;;;13.13;9.00;;;4.00;99.90;;;;;;5094587;28;20213;-85
2021/04/11 01:45:13;;;;;;;12.57;8.40;;;4.00;99.90;;;;;;5091845;28;20595;-84
2021/04/11 01:47:40;;;;;;;12.20;7.07;;;4.10;99.90;;;;;;5094794;28;20224;-81
2021/04/11 01:50:09;;;;;;;13.47;8.90;;;3.90;99.90;;;;;;5094496;28;20601;-84
2021/04/11 01:52:37;;;;;;;12.67;8.60;;;3.90;99.90;;;;;;5094284;28;20602;-89
2021/04/11 01:55:05;;;;;;;13.23;8.63;;;3.90;99.90;;;;;;5094257;28;20799;-81
2021/04/11 01:57:34;;;;;;;13.20;8.20;;;3.90;99.90;;;;;;5091822;28;20240;-81
2021/04/11 02:00:07;;;;;;;11.53;8.43;;;3.90;99.90;;;;;;5093998;28;20227;-81
2021/04/11 02:02:34;;;;;;;14.20;9.07;;;3.90;99.90;;;;;;5092257;28;20235;-81
2021/04/11 02:05:00;;;;;;;14.83;9.37;;;3.90;99.90;;;;;;5094567;28;20357;-84
2021/04/11 02:07:27;;;;;;;20.23;12.43;;;3.90;99.90;;;;;;5094188;28;20203;-86
2021/04/11 02:09:54;;;;;;;19.37;11.57;;;3.90;99.90;;;;;;5094576;28;20562;-85
2021/04/11 02:12:21;;;;;;;20.83;13.50;;;4.00;99.90;;;;;;5094774;28;20243;-87
2021/04/11 02:14:48;;;;;;;24.23;14.37;;;4.00;99.90;;;;;;5094695;28;20283;-86
2021/04/11 02:17:17;;;;;;;24.53;14.73;;;4.10;99.90;;;;;;5093820;28;20265;-81
2021/04/11 02:19:43;;;;;;;27.40;15.13;;;4.20;99.90;;;;;;5094014;28;20286;-84
2021/04/11 02:22:17;;;;;;;23.67;14.33;;;4.10;99.90;;;;;;5094236;28;20291;-80
2021/04/11 02:24:44;;;;;;;22.03;13.37;;;4.10;99.90;;;;;;5093923;28;20220;-81
2021/04/11 02:27:13;;;;;;;21.60;14.03;;;4.00;99.90;;;;;;5093700;28;20561;-81
2021/04/11 02:29:45;;;;;;;22.47;14.63;;;4.00;99.90;;;;;;5093780;28;20208;-80
2021/04/11 02:32:13;;;;;;;25.30;15.47;;;3.90;99.90;;;;;;5094318;28;20200;-81
2021/04/11 02:34:39;;;;;;;28.93;17.23;;;4.00;99.90;;;;;;5094205;28;20223;-85
2021/04/11 02:37:08;;;;;;;31.40;18.90;;;4.00;99.90;;;;;;5092267;28;20231;-79
2021/04/11 02:39:37;;;;;;;33.67;20.10;;;4.00;99.90;;;;;;5073684;28;20213;-86
2021/04/11 02:42:06;;;;;;;38.30;22.33;;;4.10;99.90;;;;;;5083151;28;20192;-81
2021/04/11 02:44:34;;;;;;;40.10;21.43;;;4.20;99.90;;;;;;5093619;28;20231;-81
2021/04/11 02:47:00;;;;;;;31.63;19.53;;;4.20;99.90;;;;;;5094234;28;20202;-81
2021/04/11 02:49:28;;;;;;;28.93;17.50;;;4.10;99.90;;;;;;5093365;28;20290;-82
2021/04/11 02:51:56;;;;;;;21.23;13.93;;;3.90;99.90;;;;;;5093756;28;20228;-83
2021/04/11 02:54:23;;;;;;;19.60;12.93;;;3.90;99.90;;;;;;5093589;28;20365;-82
2021/04/11 02:56:50;;;;;;;17.40;12.50;;;3.80;99.90;;;;;;5093202;28;20744;-80
2021/04/11 02:59:19;;;;;;;15.57;11.23;;;3.70;99.90;;;;;;5093537;28;20215;-86
2021/04/11 03:01:49;;;;;;;12.83;9.27;;;3.70;99.90;;;;;;5093821;28;20286;-82
2021/04/11 03:04:17;;;;;;;11.77;7.70;;;3.70;99.90;;;;;;5093416;28;20204;-80
2021/04/11 03:06:50;;;;;;;12.90;7.63;;;3.60;99.90;;;;;;5093545;28;20227;-80
2021/04/11 03:09:22;;;;;;;9.60;7.03;;;3.60;99.90;;;;;;5093286;28;20195;-80
2021/04/11 03:11:52;;;;;;;9.97;7.17;;;3.60;99.90;;;;;;5092747;28;20239;-80
2021/04/11 03:14:20;;;;;;;9.23;6.47;;;3.60;99.90;;;;;;5093288;28;20712;-80
2021/04/11 03:16:47;;;;;;;10.60;7.07;;;3.50;99.90;;;;;;5093190;28;20303;-80
2021/04/11 03:19:18;;;;;;;10.40;7.63;;;3.50;99.90;;;;;;5092808;28;20705;-81
2021/04/11 03:21:45;;;;;;;13.20;9.47;;;3.50;99.90;;;;;;5093327;28;20329;-84
2021/04/11 03:24:12;;;;;;;15.97;10.87;;;3.50;99.90;;;;;;5092951;28;20214;-81
2021/04/11 03:26:43;;;;;;;18.40;12.03;;;3.60;99.90;;;;;;5093094;28;20731;-87
2021/04/11 03:29:15;;;;;;;22.27;13.40;;;3.60;99.90;;;;;;5092743;28;20265;-86
2021/04/11 03:31:47;;;;;;;22.07;13.73;;;3.70;99.90;;;;;;5092939;28;20192;-84
2021/04/11 03:34:17;;;;;;;20.03;13.03;;;3.70;99.90;;;;;;5093572;28;20286;-87
2021/04/11 03:36:46;;;;;;;18.03;11.53;;;3.70;99.90;;;;;;5092462;28;20315;-82
2021/04/11 03:39:14;;;;;;;20.23;12.40;;;3.70;99.90;;;;;;5092644;28;20230;-81
2021/04/11 03:41:42;;;;;;;15.73;11.57;;;3.60;99.90;;;;;;5093032;28;20571;-84
2021/04/11 03:44:13;;;;;;;17.03;11.80;;;3.60;99.90;;;;;;5093091;28;20215;-80
2021/04/11 03:46:44;;;;;;;17.57;12.27;;;3.70;99.90;;;;;;5093393;28;20252;-80
2021/04/11 03:49:17;;;;;;;16.57;11.67;;;3.70;99.90;;;;;;5084730;28;20215;-82
2021/04/11 03:51:46;;;;;;;15.03;10.57;;;3.70;99.90;;;;;;5097060;28;20269;-80
2021/04/11 03:54:15;;;;;;;14.90;10.20;;;3.60;99.90;;;;;;5097473;28;20283;-82
2021/04/11 03:56:44;;;;;;;15.17;11.00;;;3.60;99.90;;;;;;5097239;28;20659;-84
2021/04/11 03:59:17;;;;;;;17.03;11.17;;;3.80;99.90;;;;;;5097210;28;20288;-82
2021/04/11 04:01:48;;;;;;;16.33;11.17;;;3.80;99.90;;;;;;5096874;28;20294;-84
2021/04/11 04:04:17;;;;;;;16.87;11.70;;;3.70;99.90;;;;;;5096396;28;20621;-80
2021/04/11 04:07:07;;;;;;;19.00;11.70;;;3.80;99.90;;;;;;5097256;28;20577;-86
2021/04/11 04:09:34;;;;;;;21.73;13.20;;;3.80;99.90;;;;;;5096652;28;20212;-82
2021/04/11 04:12:30;;;;;;;19.17;12.80;;;3.70;99.90;;;;;;5096690;28;20283;-80
2021/04/11 04:15:06;;;;;;;21.00;13.23;;;3.70;99.90;;;;;;5091535;28;20263;-84
2021/04/11 04:17:41;;;;;;;18.90;12.17;;;3.70;99.90;;;;;;5096204;28;20614;-82
2021/04/11 04:20:12;;;;;;;18.13;12.77;;;3.80;99.90;;;;;;5096073;28;20292;-82
2021/04/11 04:22:47;;;;;;;17.60;11.83;;;3.80;99.90;;;;;;5096586;28;20654;-82
2021/04/11 04:25:26;;;;;;;16.20;11.80;;;3.80;99.90;;;;;;5095983;28;20536;-83
2021/04/11 04:28:10;;;;;;;13.67;9.77;;;3.90;99.90;;;;;;5095390;28;20292;-80
2021/04/11 04:30:49;;;;;;;15.87;11.43;;;3.80;99.90;;;;;;5096346;28;20235;-80
2021/04/11 04:33:30;;;;;;;15.43;10.40;;;3.80;99.90;;;;;;5096061;28;20218;-82
2021/04/11 04:36:07;;;;;;;14.17;8.93;;;3.80;99.90;;;;;;5096390;28;20641;-81
2021/04/11 04:38:48;;;;;;;10.27;7.83;;;3.80;99.90;;;;;;5096098;28;20323;-87
2021/04/11 04:41:21;;;;;;;11.47;8.03;;;3.70;99.90;;;;;;5094008;28;20195;-81
2021/04/11 04:43:54;;;;;;;7.30;5.30;;;3.60;99.90;;;;;;5095591;28;20617;-87
2021/04/11 04:46:29;;;;;;;8.63;6.63;;;3.60;99.90;;;;;;5083016;28;20215;-84
2021/04/11 04:49:01;;;;;;;9.67;7.23;;;3.50;99.90;;;;;;5096077;28;20257;-84
2021/04/11 04:51:36;;;;;;;9.67;6.97;;;3.60;99.90;;;;;;5096182;28;20421;-82
2021/04/11 04:54:13;;;;;;;7.77;5.87;;;3.60;99.90;;;;;;5081745;28;20286;-87
2021/04/11 04:56:43;;;;;;;8.00;6.47;;;3.60;99.90;;;;;;5095628;28;20567;-80
2021/04/11 04:59:15;;;;;;;7.50;5.77;;;3.70;99.90;;;;;;5093526;28;20225;-80
2021/04/11 05:01:47;;;;;;;5.77;4.47;;;3.60;99.90;;;;;;5095937;28;20517;-79
2021/04/11 05:04:18;;;;;;;4.93;4.17;;;3.50;99.90;;;;;;5095025;28;20196;-81
2021/04/11 05:06:48;;;;;;;5.27;4.47;;;3.50;99.90;;;;;;5095998;28;20192;-80
2021/04/11 05:09:20;;;;;;;5.87;4.53;;;3.50;99.90;;;;;;5075743;28;20245;-85
2021/04/11 05:11:50;;;;;;;6.77;5.87;;;3.50;99.90;;;;;;5092212;28;20203;-81
2021/04/11 05:14:23;;;;;;;9.10;6.50;;;3.50;99.90;;;;;;5095521;28;20214;-80
2021/04/11 05:16:54;;;;;;;9.23;6.83;;;3.60;99.90;;;;;;5095141;28;20220;-84
2021/04/11 05:19:28;;;;;;;8.10;6.50;;;3.60;99.90;;;;;;5095942;28;20253;-81
2021/04/11 05:22:02;;;;;;;8.77;6.77;;;3.60;99.90;;;;;;5098325;28;20220;-80
2021/04/11 05:24:38;;;;;;;8.90;5.73;;;3.60;99.90;;;;;;5098332;28;20227;-80
2021/04/11 05:27:11;;;;;;;9.13;6.47;;;3.70;99.90;;;;;;5098995;28;20202;-78
2021/04/11 05:29:45;;;;;;;5.10;4.10;;;3.70;99.90;;;;;;5095483;28;20286;-80
2021/04/11 05:32:13;;;;;;;7.33;5.10;;;3.60;99.90;;;;;;5096133;28;20256;-80
2021/04/11 05:34:40;;;;;;;6.90;5.00;;;3.70;99.90;;;;;;5096919;28;20200;-80
2021/04/11 05:37:23;;;;;;;6.70;4.87;;;3.60;99.90;;;;;;5096738;28;20227;-83
2021/04/11 05:39:56;;;;;;;7.90;5.90;;;3.60;99.90;;;;;;5095221;28;20261;-85
2021/04/11 05:42:31;;;;;;;8.30;6.20;;;3.60;99.90;;;;;;5094982;28;20201;-80
2021/04/11 05:45:02;;;;;;;10.40;7.37;;;3.60;99.90;;;;;;5094473;28;20198;-80
2021/04/11 05:47:38;;;;;;;10.17;7.73;;;3.70;99.90;;;;;;5094831;28;20408;-80
2021/04/11 05:50:09;;;;;;;10.17;7.80;;;3.70;99.90;;;;;;5094310;28;20244;-80
2021/04/11 05:52:40;;;;;;;11.47;7.83;;;3.80;99.90;;;;;;5094837;28;20282;-85
2021/04/11 05:55:09;;;;;;;10.13;8.07;;;3.80;99.90;;;;;;5094893;28;20208;-79
2021/04/11 05:57:40;;;;;;;10.20;7.60;;;3.90;99.90;;;;;;5093956;28;20226;-80
2021/04/11 06:00:10;;;;;;;9.77;7.70;;;3.90;99.90;;;;;;5094985;28;20292;-79
2021/04/11 06:02:40;;;;;;;10.67;8.10;;;3.90;99.90;;;;;;5094418;28;20245;-86
2021/04/11 06:05:09;;;;;;;10.83;8.40;;;3.80;99.90;;;;;;5094203;28;20292;-84
2021/04/11 06:07:43;;;;;;;10.73;7.57;;;3.80;99.90;;;;;;5093971;28;20611;-80
2021/04/11 06:10:17;;;;;;;10.00;7.83;;;3.80;99.90;;;;;;5094365;28;20227;-79
2021/04/11 06:12:50;;;;;;;9.83;7.43;;;3.80;99.90;;;;;;5092063;28;20703;-83
2021/04/11 06:15:23;;;;;;;9.87;7.77;;;3.80;99.90;;;;;;5094447;28;20246;-80
2021/04/11 06:17:51;;;;;;;11.60;8.20;;;3.80;99.90;;;;;;5094314;28;20303;-79
2021/04/11 06:20:18;;;;;;;10.33;7.57;;;3.80;99.90;;;;;;5093934;28;20207;-84
2021/04/11 06:22:51;;;;;;;8.60;7.60;;;3.90;99.90;;;;;;5093763;28;20288;-79
2021/04/11 06:25:26;;;;;;;9.17;7.43;;;3.90;99.90;;;;;;5093658;28;20208;-79
2021/04/11 06:27:58;;;;;;;10.33;7.77;;;4.00;99.90;;;;;;5093590;28;20206;-83
2021/04/11 06:30:27;;;;;;;10.33;7.63;;;4.00;99.90;;;;;;5094116;28;20195;-86
2021/04/11 06:32:57;;;;;;;10.90;7.30;;;4.10;99.90;;;;;;5094090;28;20208;-79
2021/04/11 06:35:25;;;;;;;10.77;7.50;;;4.10;99.90;;;;;;5093523;28;20558;-83
2021/04/11 06:37:55;;;;;;;11.00;6.93;;;4.20;99.90;;;;;;5093622;28;20599;-80
2021/04/11 06:40:59;;;;;;;9.33;6.20;;;4.20;99.90;;;;;;5093919;28;20627;-78
2021/04/11 06:43:55;;;;;;;7.63;6.57;;;4.10;99.90;;;;;;5093268;28;20237;-81
2021/04/11 06:46:32;;;;;;;7.37;5.67;;;4.20;99.90;;;;;;5093815;28;20285;-82
2021/04/11 06:49:16;;;;;;;7.43;5.33;;;4.30;99.90;;;;;;5092580;28;20687;-82
2021/04/11 06:52:18;;;;;;;8.77;6.30;;;4.40;99.90;;;;;;5083522;28;20211;-77
2021/04/11 06:55:15;;;;;;;7.53;6.07;;;4.60;99.90;;;;;;5055234;28;20275;-80
2021/04/11 06:57:51;;;;;;;8.10;7.23;;;4.70;99.90;;;;;;5076316;28;20308;-83
2021/04/11 07:00:40;;;;;;;12.03;7.30;;;4.80;99.90;;;;;;5093509;28;20299;-78
2021/04/11 07:03:53;;;;;;;9.63;7.90;;;4.60;99.90;;;;;;5090921;28;20335;-78
2021/04/11 07:06:50;;;;;;;10.53;7.23;;;4.60;99.90;;;;;;5044835;28;20301;-81
2021/04/11 07:09:58;;;;;;;13.13;8.90;;;4.60;99.90;;;;;;5093608;28;20284;-78
2021/04/11 07:13:07;;;;;;;12.70;8.07;;;4.70;99.90;;;;;;5093140;28;20294;-78
2021/04/11 07:15:55;;;;;;;15.87;11.37;;;4.60;99.90;;;;;;5092841;28;20291;-82
2021/04/11 07:18:58;;;;;;;11.10;9.00;;;4.70;99.90;;;;;;5093335;28;20745;-78
2021/04/11 07:21:54;;;;;;;21.27;11.40;;;4.70;99.90;;;;;;5089410;28;20286;-80
2021/04/11 07:24:45;;;;;;;10.63;8.10;;;5.00;99.90;;;;;;5092777;28;20228;-78
2021/04/11 07:27:26;;;;;;;8.57;6.47;;;5.10;99.90;;;;;;5092619;28;20402;-80
2021/04/11 07:30:06;;;;;;;6.53;5.10;;;5.20;99.90;;;;;;5092560;28;20225;-79
2021/04/11 07:33:02;;;;;;;6.00;4.37;;;5.20;99.90;;;;;;5093084;28;20316;-78
2021/04/11 07:36:01;;;;;;;7.40;4.60;;;5.00;99.90;;;;;;5092628;28;20634;-78
2021/04/11 07:38:42;;;;;;;6.60;3.50;;;5.00;99.90;;;;;;5092528;28;20274;-77
2021/04/11 07:41:39;;;;;;;5.27;3.93;;;4.80;99.90;;;;;;5092885;28;20217;-77
2021/04/11 07:44:32;;;;;;;6.43;3.53;;;4.90;99.90;;;;;;5093239;28;20189;-77
2021/04/11 07:47:14;;;;;;;4.43;3.17;;;5.00;99.90;;;;;;5089581;28;20291;-82
2021/04/11 07:50:19;;;;;;;5.30;2.63;;;5.10;99.90;;;;;;5092548;28;20660;-81
2021/04/11 07:53:13;;;;;;;5.83;2.53;;;5.00;99.90;;;;;;5092829;28;20203;-81
2021/04/11 07:55:48;;;;;;;7.90;2.80;;;4.90;99.90;;;;;;5092716;28;20290;-78
2021/04/11 07:58:32;;;;;;;7.07;2.73;;;5.10;99.90;;;;;;5092384;28;20215;-78
2021/04/11 08:01:17;;;;;;;6.80;2.70;;;5.10;99.90;;;;;;5092499;28;20207;-84
2021/04/11 08:04:13;;;;;;;4.80;2.33;;;5.40;99.90;;;;;;5092442;28;20207;-80
2021/04/11 08:07:13;;;;;;;3.73;1.93;;;5.60;99.90;;;;;;5092028;28;20204;-77
2021/04/11 08:09:50;;;;;;;4.03;2.07;;;5.80;99.90;;;;;;5089212;28;20192;-80
2021/04/11 08:12:52;;;;;;;4.37;2.00;;;5.90;99.90;;;;;;5091953;28;20660;-82
2021/04/11 08:15:26;;;;;;;4.37;1.73;;;6.10;99.90;;;;;;5092077;28;20290;-83
2021/04/11 08:18:01;;;;;;;4.97;1.63;;;5.90;99.90;;;;;;5091748;28;20223;-78
2021/04/11 08:20:49;;;;;;;4.40;1.50;;;5.80;99.90;;;;;;5092326;28;20212;-82
2021/04/11 08:23:49;;;;;;;3.37;1.60;;;5.60;99.90;;;;;;5085884;28;20198;-77
2021/04/11 08:26:55;;;;;;;3.97;1.67;;;5.60;99.90;;;;;;5092516;28;20201;-81
2021/04/11 08:29:36;;;;;;;3.93;1.53;;;5.70;99.90;;;;;;5087853;28;20195;-79
2021/04/11 08:32:27;;;;;;;3.07;1.70;;;5.90;99.90;;;;;;5092050;28;20196;-80
2021/04/11 08:35:16;;;;;;;3.87;1.60;;;6.00;99.90;;;;;;5080717;28;20291;-80
2021/04/11 08:38:08;;;;;;;3.13;1.50;;;6.00;99.90;;;;;;5091996;28;20227;-80
2021/04/11 08:40:50;;;;;;;2.07;1.40;;;6.00;99.90;;;;;;5095439;28;20668;-82
2021/04/11 08:43:31;;;;;;;5.67;1.50;;;6.10;99.90;;;;;;5094521;28;20212;-78
2021/04/11 08:46:18;;;;;;;4.10;1.60;;;6.30;99.90;;;;;;5094732;28;20192;-80
2021/04/11 08:48:52;;;;;;;3.53;1.57;;;6.10;99.90;;;;;;5084100;28;20287;-77
2021/04/11 08:51:24;;;;;;;3.80;1.30;;;5.90;99.90;;;;;;5095228;28;20646;-77
2021/04/11 08:54:07;;;;;;;3.07;1.33;;;5.80;99.90;;;;;;5095921;28;20644;-77
2021/04/11 08:56:41;;;;;;;1.97;1.20;;;5.90;99.90;;;;;;5094821;28;20676;-78
2021/04/11 08:59:15;;;;;;;2.53;1.30;;;5.80;99.90;;;;;;5094678;28;20648;-77
2021/04/11 09:02:11;;;;;;;4.83;1.70;;;6.00;99.90;;;;;;5095647;28;20201;-78
2021/04/11 09:04:41;;;;;;;3.57;1.40;;;6.20;99.90;;;;;;5088509;28;20208;-77
2021/04/11 09:07:27;;;;;;;1.97;1.17;;;6.20;99.90;;;;;;5095286;28;20285;-77
2021/04/11 09:10:06;;;;;;;5.27;1.20;;;6.40;99.90;;;;;;5095113;28;20196;-78
2021/04/11 09:12:43;;;;;;;3.70;1.57;;;6.70;99.90;;;;;;5095230;28;20252;-79
2021/04/11 09:15:20;;;;;;;3.53;1.10;;;6.90;99.90;;;;;;5094430;28;20198;-76
2021/04/11 09:18:09;;;;;;;2.80;1.47;;;6.80;99.90;;;;;;5095174;28;20232;-80
2021/04/11 09:20:43;;;;;;;3.97;1.20;;;6.80;99.90;;;;;;5097554;28;20292;-77
2021/04/11 09:23:33;;;;;;;2.60;1.20;;;6.90;99.90;;;;;;5095336;28;20223;-77
2021/04/11 09:26:17;;;;;;;2.43;1.00;;;7.10;99.90;;;;;;5096845;28;20235;-77
2021/04/11 09:28:49;;;;;;;3.53;0.93;;;7.50;99.90;;;;;;5088563;28;20199;-77
2021/04/11 09:31:40;;;;;;;2.87;0.83;;;7.50;99.90;;;;;;5097608;28;20287;-77
2021/04/11 09:34:29;;;;;;;3.27;0.83;;;7.00;99.90;;;;;;5094459;28;20283;-77
2021/04/11 09:37:14;;;;;;;3.00;1.20;;;7.40;99.90;;;;;;5094792;28;20224;-77
2021/04/11 09:39:56;;;;;;;4.17;0.90;;;8.00;99.90;;;;;;5094965;28;20204;-78
2021/04/11 09:42:39;;;;;;;3.63;1.47;;;8.20;99.90;;;;;;5096075;28;20197;-76
2021/04/11 09:45:18;;;;;;;2.10;1.10;;;8.00;99.90;;;;;;5095817;28;20722;-80
2021/04/11 09:48:08;;;;;;;4.03;1.07;;;7.60;99.90;;;;;;5094795;28;20200;-77
2021/04/11 09:50:45;;;;;;;8.63;1.70;;;7.50;99.90;;;;;;5094260;28;20210;-80
2021/04/11 09:53:36;;;;;;;3.63;0.93;;;7.70;99.90;;;;;;5095598;28;20292;-77
2021/04/11 09:56:14;;;;;;;4.00;0.97;;;7.80;99.90;;;;;;5095181;28;20727;-77
2021/04/11 09:59:09;;;;;;;1.53;0.90;;;7.60;99.90;;;;;;5093824;28;20299;-80
2021/04/11 10:01:44;;;;;;;2.73;0.93;;;7.10;99.90;;;;;;5089395;28;20257;-77
2021/04/11 10:04:31;;;;;;;2.57;1.07;;;7.00;99.90;;;;;;5084723;28;20284;-77
2021/04/11 10:07:14;;;;;;;6.57;1.10;;;7.20;99.90;;;;;;5094815;28;20206;-80
2021/04/11 10:09:53;;;;;;;4.00;1.13;;;7.60;99.90;;;;;;5084310;28;20219;-77
2021/04/11 10:12:40;;;;;;;2.77;0.87;;;7.70;99.90;;;;;;5094635;28;20192;-77
2021/04/11 10:15:16;;;;;;;2.57;1.40;;;7.40;99.90;;;;;;5083907;28;20227;-77
2021/04/11 10:18:26;;;;;;;2.40;1.20;;;7.20;99.90;;;;;;5093292;28;20625;-79
2021/04/11 10:21:07;;;;;;;3.00;1.30;;;7.20;99.90;;;;;;5093420;28;20291;-77
2021/04/11 10:23:45;;;;;;;4.40;1.13;;;7.20;99.90;;;;;;5080463;28;20201;-78
2021/04/11 10:26:18;;;;;;;2.97;1.20;;;7.10;99.90;;;;;;5080039;28;20242;-77
2021/04/11 10:28:50;;;;;;;4.17;1.43;;;6.90;99.90;;;;;;5092961;28;20200;-79
2021/04/11 10:31:23;;;;;;;2.50;1.10;;;6.90;99.90;;;;;;5092577;28;20190;-77
2021/04/11 10:33:54;;;;;;;8.00;2.20;;;6.60;99.90;;;;;;5092933;28;20297;-77
2021/04/11 10:36:30;;;;;;;5.27;1.50;;;6.60;99.90;;;;;;5088562;28;20224;-78
2021/04/11 10:39:01;;;;;;;4.10;1.20;;;6.70;99.90;;;;;;5091187;28;20284;-79
2021/04/11 10:41:53;;;;;;;5.53;1.40;;;6.70;99.90;;;;;;5093133;28;20219;-78
2021/04/11 10:44:55;;;;;;;1.90;1.10;;;6.60;99.90;;;;;;5087632;28;20197;-77
2021/04/11 10:47:48;;;;;;;2.03;1.00;;;6.60;99.90;;;;;;5064628;28;20295;-79
2021/04/11 10:50:20;;;;;;;2.10;1.23;;;6.50;99.90;;;;;;5092029;28;20279;-78
2021/04/11 10:53:14;;;;;;;4.03;1.20;;;6.40;99.90;;;;;;5089722;28;20286;-77
2021/04/11 10:55:57;;;;;;;1.43;1.03;;;6.30;99.90;;;;;;5087708;28;20282;-77
2021/04/11 10:58:44;;;;;;;3.47;1.00;;;6.20;99.90;;;;;;5089905;28;20223;-80
2021/04/11 11:01:47;;;;;;;3.20;1.33;;;6.20;99.90;;;;;;5091937;28;20211;-77
2021/04/11 11:04:58;;;;;;;6.70;1.40;;;6.10;99.90;;;;;;5082863;28;20208;-82
2021/04/11 11:07:52;;;;;;;6.17;1.57;;;6.10;99.90;;;;;;5090418;28;20237;-79
2021/04/11 11:10:33;;;;;;;7.20;1.43;;;6.20;99.90;;;;;;5089178;28;20292;-77
2021/04/11 11:13:14;;;;;;;4.30;1.63;;;6.50;99.90;;;;;;5089735;28;20192;-80
2021/04/11 11:15:53;;;;;;;6.93;1.77;;;7.10;99.90;;;;;;5089877;28;20933;-77
2021/04/11 11:19:00;;;;;;;5.77;1.23;;;7.30;99.90;;;;;;5090372;28;20228;-80
2021/04/11 11:21:45;;;;;;;6.97;1.80;;;7.60;99.90;;;;;;5014753;28;20217;-77
2021/04/11 11:24:52;;;;;;;3.43;1.53;;;7.70;99.90;;;;;;5082197;28;20643;-81
2021/04/11 11:27:42;;;;;;;3.07;1.27;;;7.80;99.90;;;;;;5088645;28;20211;-75
2021/04/11 11:30:33;;;;;;;4.20;1.13;;;8.10;99.90;;;;;;5090553;28;20228;-75
2021/04/11 11:33:14;;;;;;;3.20;1.20;;;8.10;99.90;;;;;;5089279;28;20195;-76
2021/04/11 11:35:59;;;;;;;5.97;1.90;;;8.40;99.90;;;;;;5084163;28;20221;-77
2021/04/11 11:38:31;;;;;;;3.13;1.10;;;8.60;99.90;;;;;;5087236;28;20223;-76
2021/04/11 11:41:11;;;;;;;5.93;1.50;;;8.60;99.90;;;;;;5083061;28;20207;-76
2021/04/11 11:43:49;;;;;;;8.60;1.53;;;8.40;99.90;;;;;;5091948;28;20245;-77
2021/04/11 11:46:23;;;;;;;5.47;1.67;;;8.40;99.90;;;;;;5090779;28;20187;-77
2021/04/11 11:49:00;;;;;;;5.50;1.30;;;8.00;99.90;;;;;;5064440;28;20282;-76
2021/04/11 11:51:42;;;;;;;5.30;1.37;;;7.80;99.90;;;;;;5080830;28;20326;-76
2021/04/11 11:54:16;;;;;;;4.50;1.33;;;7.80;99.90;;;;;;5085309;28;20193;-76
2021/04/11 11:56:47;;;;;;;4.87;1.50;;;7.90;99.90;;;;;;5080758;28;20283;-79
2021/04/11 11:59:25;;;;;;;2.77;1.20;;;8.10;99.90;;;;;;5086319;28;20209;-79
2021/04/11 12:01:56;;;;;;;4.10;1.10;;;8.50;99.90;;;;;;5087026;28;20191;-76
2021/04/11 12:04:50;;;;;;;4.37;1.10;;;8.90;99.90;;;;;;5084910;28;20634;-80
2021/04/11 12:07:25;;;;;;;2.37;0.77;;;9.40;99.90;;;;;;5080505;28;20276;-74
2021/04/11 12:10:06;;;;;;;5.00;0.83;;;9.80;99.90;;;;;;5092336;28;20281;-75
2021/04/11 12:12:37;;;;;;;3.70;0.80;;;9.40;99.90;;;;;;5094009;28;20209;-75
2021/04/11 12:15:09;;;;;;;4.30;1.00;;;9.50;99.90;;;;;;5094905;28;20200;-77
2021/04/11 12:17:44;;;;;;;4.57;1.17;;;9.40;99.90;;;;;;5093399;28;20291;-75
2021/04/11 12:20:15;;;;;;;3.10;1.17;;;9.20;99.90;;;;;;5093704;28;20680;-76
2021/04/11 12:22:44;;;;;;;2.43;1.10;;;9.80;99.90;;;;;;5096014;28;20283;-76
2021/04/11 12:25:20;;;;;;;3.83;1.20;;;10.10;99.90;;;;;;5096455;28;20227;-76
2021/04/11 12:27:48;;;;;;;4.70;1.60;;;10.60;99.90;;;;;;5095852;28;20287;-75
2021/04/11 12:30:17;;;;;;;7.53;1.40;;;11.40;99.90;;;;;;5095874;28;20281;-77
2021/04/11 12:32:52;;;;;;;2.33;1.30;;;11.20;99.90;;;;;;5095063;28;20322;-75
2021/04/11 12:35:28;;;;;;;5.00;1.50;;;10.10;99.90;;;;;;5095994;28;20287;-76
2021/04/11 12:38:12;;;;;;;3.23;1.70;;;9.50;99.90;;;;;;5091681;28;20294;-76
2021/04/11 12:40:43;;;;;;;3.97;1.63;;;9.10;99.90;;;;;;5095444;28;20244;-79
2021/04/11 12:43:17;;;;;;;6.97;1.90;;;8.70;99.90;;;;;;5095963;28;20203;-79
2021/04/11 12:45:57;;;;;;;3.77;1.33;;;8.50;99.90;;;;;;5095741;28;20211;-76
2021/04/11 12:48:31;;;;;;;2.70;1.40;;;8.50;99.90;;;;;;5088353;28;20300;-76
2021/04/11 12:51:05;;;;;;;4.10;1.60;;;8.50;99.90;;;;;;5083079;28;20621;-76
2021/04/11 12:53:45;;;;;;;5.60;2.00;;;8.70;99.90;;;;;;5084514;28;20397;-76
2021/04/11 12:56:18;;;;;;;6.07;1.50;;;8.40;99.90;;;;;;5095159;28;20277;-75
2021/04/11 12:58:51;;;;;;;5.50;1.70;;;8.30;99.90;;;;;;5095374;28;20311;-78
2021/04/11 13:01:24;;;;;;;4.20;1.00;;;8.30;99.90;;;;;;5095350;28;20283;-76
2021/04/11 13:04:03;;;;;;;2.23;1.20;;;8.50;99.90;;;;;;5092014;28;20196;-76
2021/04/11 13:06:39;;;;;;;3.90;1.43;;;8.60;99.90;;;;;;5087485;28;20303;-76
2021/04/11 13:09:54;;;;;;;4.23;1.50;;;9.00;99.90;;;;;;5085783;28;20198;-76
2021/04/11 13:12:27;;;;;;;4.60;1.67;;;9.30;99.90;;;;;;5050741;28;20390;-77
2021/04/11 13:15:02;;;;;;;4.37;1.40;;;9.20;99.90;;;;;;5080184;28;20205;-76
2021/04/11 13:17:37;;;;;;;4.70;1.43;;;8.70;99.90;;;;;;5074870;28;20263;-75
2021/04/11 13:20:11;;;;;;;3.97;1.20;;;8.50;99.90;;;;;;5080987;28;20649;-76
2021/04/11 13:22:48;;;;;;;6.53;1.20;;;8.30;99.90;;;;;;5094818;28;20241;-76
2021/04/11 13:25:21;;;;;;;6.60;1.40;;;8.70;99.90;;;;;;5094708;28;20219;-78
2021/04/11 13:27:57;;;;;;;4.10;1.07;;;9.00;99.90;;;;;;5094564;28;20207;-78
2021/04/11 13:30:27;;;;;;;5.80;0.90;;;9.50;99.90;;;;;;5093925;28;20640;-76
2021/04/11 13:33:00;;;;;;;3.87;1.00;;;10.10;99.90;;;;;;5091282;28;20205;-75
2021/04/11 13:35:34;;;;;;;3.43;0.90;;;10.30;99.90;;;;;;5089873;28;20289;-78
2021/04/11 13:38:06;;;;;;;3.07;1.10;;;9.80;99.90;;;;;;5086137;28;20210;-77
2021/04/11 13:40:35;;;;;;;4.40;1.03;;;9.50;99.90;;;;;;5093332;28;20283;-78